sensor_id;sensor_type;location;lat;lon;timestamp;pressure;altitude;pressure_sealevel;temperature;humidity
62436;BME280;48480;50.252;18.848;2023-04-30T00:01:40;98594.68;;;11.35;85.86
62436;BME280;48480;50.252;18.848;2023-04-30T00:04:25;98598.49;;;11.38;86.03
62436;BME280;48480;50.252;18.848;2023-04-30T00:07:10;98599.95;;;11.43;85.73
62436;BME280;48480;50.252;18.848;2023-04-30T00:09:54;98596.14;;;11.48;85.54
62436;BME280;48480;50.252;18.848;2023-04-30T00:12:38;98595.32;;;11.50;85.35
62436;BME280;48480;50.252;18.848;2023-04-30T00:15:23;98595.98;;;11.51;85.02
62436;BME280;48480;50.252;18.848;2023-04-30T00:18:07;98597.85;;;11.50;85.01
62436;BME280;48480;50.252;18.848;2023-04-30T00:20:51;98598.69;;;11.52;85.05
62436;BME280;48480;50.252;18.848;2023-04-30T00:23:37;98601.86;;;11.49;84.97
62436;BME280;48480;50.252;18.848;2023-04-30T00:26:21;98605.85;;;11.47;84.98
62436;BME280;48480;50.252;18.848;2023-04-30T00:29:05;98605.79;;;11.47;85.13
62436;BME280;48480;50.252;18.848;2023-04-30T00:31:49;98606.80;;;11.49;84.91
62436;BME280;48480;50.252;18.848;2023-04-30T00:34:34;98605.70;;;11.43;84.78
62436;BME280;48480;50.252;18.848;2023-04-30T00:37:18;98612.08;;;11.42;85.14
62436;BME280;48480;50.252;18.848;2023-04-30T00:40:03;98611.89;;;11.38;85.08
62436;BME280;48480;50.252;18.848;2023-04-30T00:42:47;98613.24;;;11.28;85.26
62436;BME280;48480;50.252;18.848;2023-04-30T00:45:32;98612.97;;;11.23;85.51
62436;BME280;48480;50.252;18.848;2023-04-30T00:48:17;98612.81;;;11.22;85.84
62436;BME280;48480;50.252;18.848;2023-04-30T00:51:02;98609.35;;;11.20;85.68
62436;BME280;48480;50.252;18.848;2023-04-30T00:53:47;98612.77;;;11.14;85.56
62436;BME280;48480;50.252;18.848;2023-04-30T00:56:31;98611.61;;;11.13;85.88
62436;BME280;48480;50.252;18.848;2023-04-30T00:59:16;98616.52;;;11.16;85.91
62436;BME280;48480;50.252;18.848;2023-04-30T01:02:01;98614.64;;;11.16;85.62
62436;BME280;48480;50.252;18.848;2023-04-30T01:04:46;98616.71;;;11.17;85.59
62436;BME280;48480;50.252;18.848;2023-04-30T01:07:31;98597.80;;;11.03;85.62
62436;BME280;48480;50.252;18.848;2023-04-30T01:10:15;98620.00;;;11.15;85.65
62436;BME280;48480;50.252;18.848;2023-04-30T01:16:26;98617.79;;;11.17;85.45
62436;BME280;48480;50.252;18.848;2023-04-30T01:19:34;98619.75;;;11.21;85.31
62436;BME280;48480;50.252;18.848;2023-04-30T01:25:24;98630.23;;;11.27;85.04
62436;BME280;48480;50.252;18.848;2023-04-30T01:28:14;98626.52;;;11.26;84.64
62436;BME280;48480;50.252;18.848;2023-04-30T01:30:59;98627.33;;;11.24;84.49
62436;BME280;48480;50.252;18.848;2023-04-30T01:33:44;98630.39;;;11.24;84.71
62436;BME280;48480;50.252;18.848;2023-04-30T01:36:49;98631.91;;;11.25;84.51
62436;BME280;48480;50.252;18.848;2023-04-30T01:42:59;98635.52;;;11.23;84.24
62436;BME280;48480;50.252;18.848;2023-04-30T01:46:10;98639.78;;;11.24;84.17
62436;BME280;48480;50.252;18.848;2023-04-30T01:52:23;98634.89;;;11.25;84.40
62436;BME280;48480;50.252;18.848;2023-04-30T01:55:20;98633.65;;;11.28;84.09
62436;BME280;48480;50.252;18.848;2023-04-30T01:58:14;98632.89;;;11.25;84.03
62436;BME280;48480;50.252;18.848;2023-04-30T02:00:59;98635.17;;;11.26;84.13
62436;BME280;48480;50.252;18.848;2023-04-30T02:03:45;98637.79;;;11.26;84.11
62436;BME280;48480;50.252;18.848;2023-04-30T02:06:29;98637.52;;;11.27;84.32
62436;BME280;48480;50.252;18.848;2023-04-30T02:09:14;98639.13;;;11.28;84.26
62436;BME280;48480;50.252;18.848;2023-04-30T02:11:58;98641.61;;;11.26;84.44
62436;BME280;48480;50.252;18.848;2023-04-30T02:14:42;98644.08;;;11.26;84.68
62436;BME280;48480;50.252;18.848;2023-04-30T02:17:26;98644.40;;;11.26;84.50
62436;BME280;48480;50.252;18.848;2023-04-30T02:20:10;98650.46;;;11.25;84.57
62436;BME280;48480;50.252;18.848;2023-04-30T02:22:55;98651.27;;;11.23;84.66
62436;BME280;48480;50.252;18.848;2023-04-30T02:25:40;98659.23;;;11.19;84.68
62436;BME280;48480;50.252;18.848;2023-04-30T02:28:24;98663.73;;;11.13;84.64
62436;BME280;48480;50.252;18.848;2023-04-30T02:31:08;98665.72;;;11.06;84.62
62436;BME280;48480;50.252;18.848;2023-04-30T02:33:52;98673.16;;;11.00;84.31
62436;BME280;48480;50.252;18.848;2023-04-30T02:36:37;98673.10;;;10.90;84.19
62436;BME280;48480;50.252;18.848;2023-04-30T02:39:21;98680.63;;;10.82;84.16
62436;BME280;48480;50.252;18.848;2023-04-30T02:42:05;98683.09;;;10.71;84.08
62436;BME280;48480;50.252;18.848;2023-04-30T02:44:50;98689.95;;;10.59;83.94
62436;BME280;48480;50.252;18.848;2023-04-30T02:47:34;98698.50;;;10.44;83.77
62436;BME280;48480;50.252;18.848;2023-04-30T02:50:18;98708.72;;;10.29;83.51
62436;BME280;48480;50.252;18.848;2023-04-30T02:53:03;98716.73;;;10.12;82.55
62436;BME280;48480;50.252;18.848;2023-04-30T02:55:47;98721.48;;;9.89;81.65
62436;BME280;48480;50.252;18.848;2023-04-30T02:58:31;98723.80;;;9.72;81.62
62436;BME280;48480;50.252;18.848;2023-04-30T03:01:16;98729.22;;;9.57;81.52
62436;BME280;48480;50.252;18.848;2023-04-30T03:04:00;98727.00;;;9.46;81.75
62436;BME280;48480;50.252;18.848;2023-04-30T03:06:47;98732.98;;;9.39;82.11
62436;BME280;48480;50.252;18.848;2023-04-30T03:09:31;98737.39;;;9.30;81.77
62436;BME280;48480;50.252;18.848;2023-04-30T03:12:15;98740.48;;;9.21;81.87
62436;BME280;48480;50.252;18.848;2023-04-30T03:14:59;98741.46;;;9.12;81.72
62436;BME280;48480;50.252;18.848;2023-04-30T03:17:44;98745.06;;;9.05;82.01
62436;BME280;48480;50.252;18.848;2023-04-30T03:20:28;98753.64;;;9.01;81.87
62436;BME280;48480;50.252;18.848;2023-04-30T03:23:11;98757.41;;;9.00;82.09
62436;BME280;48480;50.252;18.848;2023-04-30T03:25:56;98761.45;;;8.99;81.99
62436;BME280;48480;50.252;18.848;2023-04-30T03:28:39;98768.63;;;8.99;81.86
62436;BME280;48480;50.252;18.848;2023-04-30T03:31:24;98772.23;;;9.00;81.91
62436;BME280;48480;50.252;18.848;2023-04-30T03:34:08;98772.36;;;9.01;81.89
62436;BME280;48480;50.252;18.848;2023-04-30T03:36:52;98772.08;;;9.03;82.00
62436;BME280;48480;50.252;18.848;2023-04-30T03:39:36;98773.91;;;9.05;82.21
62436;BME280;48480;50.252;18.848;2023-04-30T03:42:20;98775.84;;;9.07;82.09
62436;BME280;48480;50.252;18.848;2023-04-30T03:45:04;98778.17;;;9.06;81.61
62436;BME280;48480;50.252;18.848;2023-04-30T03:47:49;98784.33;;;9.09;81.95
62436;BME280;48480;50.252;18.848;2023-04-30T03:50:35;98788.84;;;9.13;81.82
62436;BME280;48480;50.252;18.848;2023-04-30T03:53:19;98791.96;;;9.15;81.68
62436;BME280;48480;50.252;18.848;2023-04-30T03:56:03;98796.27;;;9.17;81.65
62436;BME280;48480;50.252;18.848;2023-04-30T03:58:47;98800.36;;;9.15;81.41
62436;BME280;48480;50.252;18.848;2023-04-30T04:01:32;98801.11;;;9.15;81.90
62436;BME280;48480;50.252;18.848;2023-04-30T04:04:16;98803.87;;;9.16;81.67
62436;BME280;48480;50.252;18.848;2023-04-30T04:07:00;98805.98;;;9.19;82.06
62436;BME280;48480;50.252;18.848;2023-04-30T04:09:46;98805.48;;;9.22;82.15
62436;BME280;48480;50.252;18.848;2023-04-30T04:12:33;98809.55;;;9.25;82.01
62436;BME280;48480;50.252;18.848;2023-04-30T04:15:17;98817.68;;;9.28;82.04
62436;BME280;48480;50.252;18.848;2023-04-30T04:18:01;98788.10;;;9.10;82.03
62436;BME280;48480;50.252;18.848;2023-04-30T04:20:46;98822.40;;;9.33;82.20
62436;BME280;48480;50.252;18.848;2023-04-30T04:23:30;98824.52;;;9.40;82.26
62436;BME280;48480;50.252;18.848;2023-04-30T04:26:14;98828.48;;;9.43;81.82
62436;BME280;48480;50.252;18.848;2023-04-30T04:28:59;98831.24;;;9.41;81.65
62436;BME280;48480;50.252;18.848;2023-04-30T04:31:45;98836.88;;;9.38;81.73
62436;BME280;48480;50.252;18.848;2023-04-30T04:34:32;98836.66;;;9.38;81.42
62436;BME280;48480;50.252;18.848;2023-04-30T04:37:16;98843.12;;;9.33;81.25
62436;BME280;48480;50.252;18.848;2023-04-30T04:40:00;98846.54;;;9.34;81.22
62436;BME280;48480;50.252;18.848;2023-04-30T04:42:44;98852.23;;;9.36;81.03
62436;BME280;48480;50.252;18.848;2023-04-30T04:45:28;98853.98;;;9.34;80.62
62436;BME280;48480;50.252;18.848;2023-04-30T04:48:12;98859.90;;;9.35;80.70
62436;BME280;48480;50.252;18.848;2023-04-30T04:50:56;98862.81;;;9.37;80.47
62436;BME280;48480;50.252;18.848;2023-04-30T04:53:40;98865.27;;;9.37;80.53
62436;BME280;48480;50.252;18.848;2023-04-30T04:56:24;98870.71;;;9.38;80.24
62436;BME280;48480;50.252;18.848;2023-04-30T04:59:08;98876.98;;;9.41;80.12
62436;BME280;48480;50.252;18.848;2023-04-30T05:01:52;98881.27;;;9.44;80.23
62436;BME280;48480;50.252;18.848;2023-04-30T05:04:36;98885.95;;;9.43;79.34
62436;BME280;48480;50.252;18.848;2023-04-30T05:07:20;98888.80;;;9.42;79.33
62436;BME280;48480;50.252;18.848;2023-04-30T05:10:06;98894.55;;;9.46;79.33
62436;BME280;48480;50.252;18.848;2023-04-30T05:12:50;98895.64;;;9.49;79.09
62436;BME280;48480;50.252;18.848;2023-04-30T05:15:34;98899.66;;;9.54;79.21
62436;BME280;48480;50.252;18.848;2023-04-30T05:18:19;98902.64;;;9.58;78.63
62436;BME280;48480;50.252;18.848;2023-04-30T05:21:03;98910.11;;;9.59;78.54
62436;BME280;48480;50.252;18.848;2023-04-30T05:23:47;98912.81;;;9.63;78.59
62436;BME280;48480;50.252;18.848;2023-04-30T05:26:31;98912.98;;;9.68;78.60
62436;BME280;48480;50.252;18.848;2023-04-30T05:29:15;98916.14;;;9.71;78.40
62436;BME280;48480;50.252;18.848;2023-04-30T05:32:00;98920.34;;;9.70;78.10
62436;BME280;48480;50.252;18.848;2023-04-30T05:34:44;98919.47;;;9.70;78.16
62436;BME280;48480;50.252;18.848;2023-04-30T05:37:28;98925.45;;;9.72;78.15
62436;BME280;48480;50.252;18.848;2023-04-30T05:40:13;98931.27;;;9.73;77.81
62436;BME280;48480;50.252;18.848;2023-04-30T05:42:58;98930.91;;;9.72;77.65
62436;BME280;48480;50.252;18.848;2023-04-30T05:45:42;98938.79;;;9.69;77.60
62436;BME280;48480;50.252;18.848;2023-04-30T05:48:26;98940.60;;;9.69;77.31
62436;BME280;48480;50.252;18.848;2023-04-30T05:51:10;98941.94;;;9.70;77.33
62436;BME280;48480;50.252;18.848;2023-04-30T05:53:54;98943.61;;;9.69;76.97
62436;BME280;48480;50.252;18.848;2023-04-30T05:56:40;98948.30;;;9.73;77.03
62436;BME280;48480;50.252;18.848;2023-04-30T05:59:24;98951.89;;;9.80;77.07
62436;BME280;48480;50.252;18.848;2023-04-30T06:02:09;98953.55;;;9.87;77.09
62436;BME280;48480;50.252;18.848;2023-04-30T06:04:52;98951.81;;;9.94;76.68
62436;BME280;48480;50.252;18.848;2023-04-30T06:07:36;98955.77;;;10.00;76.18
62436;BME280;48480;50.252;18.848;2023-04-30T06:10:20;98961.02;;;10.09;76.03
62436;BME280;48480;50.252;18.848;2023-04-30T06:13:05;98962.69;;;10.24;76.00
62436;BME280;48480;50.252;18.848;2023-04-30T06:15:50;98962.86;;;10.40;74.83
62436;BME280;48480;50.252;18.848;2023-04-30T06:18:35;98965.92;;;10.54;74.43
62436;BME280;48480;50.252;18.848;2023-04-30T06:21:22;98967.27;;;10.71;74.08
62436;BME280;48480;50.252;18.848;2023-04-30T06:24:09;98969.65;;;10.91;73.29
62436;BME280;48480;50.252;18.848;2023-04-30T06:26:53;98969.63;;;11.19;73.53
62436;BME280;48480;50.252;18.848;2023-04-30T06:29:37;98966.46;;;11.52;72.11
62436;BME280;48480;50.252;18.848;2023-04-30T06:32:22;98966.86;;;11.91;71.14
62436;BME280;48480;50.252;18.848;2023-04-30T06:35:07;98968.69;;;12.40;69.52
62436;BME280;48480;50.252;18.848;2023-04-30T06:37:54;98969.70;;;13.12;67.37
62436;BME280;48480;50.252;18.848;2023-04-30T06:40:38;98964.64;;;13.93;65.61
62436;BME280;48480;50.252;18.848;2023-04-30T06:43:23;98970.29;;;15.02;63.90
62436;BME280;48480;50.252;18.848;2023-04-30T06:46:07;98970.38;;;16.07;61.04
62436;BME280;48480;50.252;18.848;2023-04-30T06:48:52;98977.14;;;16.81;58.59
62436;BME280;48480;50.252;18.848;2023-04-30T06:51:36;98980.44;;;17.36;55.32
62436;BME280;48480;50.252;18.848;2023-04-30T06:54:20;98984.16;;;17.64;53.43
62436;BME280;48480;50.252;18.848;2023-04-30T06:57:05;98979.29;;;17.88;52.36
62436;BME280;48480;50.252;18.848;2023-04-30T06:59:50;98987.88;;;18.17;50.44
62436;BME280;48480;50.252;18.848;2023-04-30T07:02:34;98987.81;;;18.46;49.34
62436;BME280;48480;50.252;18.848;2023-04-30T07:05:20;98990.90;;;18.75;48.14
62436;BME280;48480;50.252;18.848;2023-04-30T07:08:05;98995.66;;;19.14;47.48
62436;BME280;48480;50.252;18.848;2023-04-30T07:10:50;98988.26;;;19.55;46.34
62436;BME280;48480;50.252;18.848;2023-04-30T07:13:34;98988.78;;;19.90;45.59
62436;BME280;48480;50.252;18.848;2023-04-30T07:16:24;98986.18;;;20.18;44.78
62436;BME280;48480;50.252;18.848;2023-04-30T07:19:11;98983.07;;;20.40;44.26
62436;BME280;48480;50.252;18.848;2023-04-30T07:21:56;98977.00;;;20.53;43.71
62436;BME280;48480;50.252;18.848;2023-04-30T07:24:46;98971.89;;;20.64;43.30
62436;BME280;48480;50.252;18.848;2023-04-30T07:27:31;98980.60;;;20.64;42.41
62436;BME280;48480;50.252;18.848;2023-04-30T07:30:15;98982.23;;;20.58;42.41
62436;BME280;48480;50.252;18.848;2023-04-30T07:32:59;98984.77;;;20.39;41.01
62436;BME280;48480;50.252;18.848;2023-04-30T07:35:43;98988.55;;;20.21;41.43
62436;BME280;48480;50.252;18.848;2023-04-30T07:38:28;98992.38;;;20.01;41.74
62436;BME280;48480;50.252;18.848;2023-04-30T07:41:13;98991.32;;;19.56;42.10
62436;BME280;48480;50.252;18.848;2023-04-30T07:43:58;98997.20;;;19.21;43.06
62436;BME280;48480;50.252;18.848;2023-04-30T07:46:42;98996.63;;;18.85;42.43
62436;BME280;48480;50.252;18.848;2023-04-30T07:49:34;99001.70;;;17.93;42.21
62436;BME280;48480;50.252;18.848;2023-04-30T07:52:18;99002.74;;;17.07;44.43
62436;BME280;48480;50.252;18.848;2023-04-30T07:55:02;99005.39;;;16.80;45.33
62436;BME280;48480;50.252;18.848;2023-04-30T07:57:46;98997.27;;;16.37;45.17
62436;BME280;48480;50.252;18.848;2023-04-30T08:00:30;99009.71;;;15.99;46.02
62436;BME280;48480;50.252;18.848;2023-04-30T08:03:15;99019.27;;;16.05;47.05
62436;BME280;48480;50.252;18.848;2023-04-30T08:05:59;99022.62;;;16.21;46.18
62436;BME280;48480;50.252;18.848;2023-04-30T08:08:44;99020.95;;;16.19;44.74
62436;BME280;48480;50.252;18.848;2023-04-30T08:11:28;99018.04;;;16.27;45.46
62436;BME280;48480;50.252;18.848;2023-04-30T08:14:12;99022.39;;;16.49;45.35
62436;BME280;48480;50.252;18.848;2023-04-30T08:16:58;99027.79;;;16.48;44.65
62436;BME280;48480;50.252;18.848;2023-04-30T08:19:44;99024.20;;;16.34;45.42
62436;BME280;48480;50.252;18.848;2023-04-30T08:22:28;99026.14;;;16.45;46.24
62436;BME280;48480;50.252;18.848;2023-04-30T08:25:13;99027.80;;;16.46;45.84
62436;BME280;48480;50.252;18.848;2023-04-30T08:27:58;99026.88;;;16.28;45.20
62436;BME280;48480;50.252;18.848;2023-04-30T08:30:43;99033.53;;;16.06;45.00
62436;BME280;48480;50.252;18.848;2023-04-30T08:33:28;99026.71;;;16.13;45.14
62436;BME280;48480;50.252;18.848;2023-04-30T08:36:13;99030.52;;;16.41;43.56
62436;BME280;48480;50.252;18.848;2023-04-30T08:38:58;99029.48;;;16.63;42.08
62436;BME280;48480;50.252;18.848;2023-04-30T08:41:45;99026.65;;;16.78;42.51
62436;BME280;48480;50.252;18.848;2023-04-30T08:44:35;99023.62;;;16.98;42.72
62436;BME280;48480;50.252;18.848;2023-04-30T08:47:28;99028.48;;;17.14;42.82
62436;BME280;48480;50.252;18.848;2023-04-30T08:50:12;99025.16;;;17.03;42.57
62436;BME280;48480;50.252;18.848;2023-04-30T08:52:58;99026.11;;;16.80;42.57
62436;BME280;48480;50.252;18.848;2023-04-30T08:55:42;99012.59;;;16.42;42.96
62436;BME280;48480;50.252;18.848;2023-04-30T08:58:27;99035.27;;;16.35;42.83
62436;BME280;48480;50.252;18.848;2023-04-30T09:01:12;99030.52;;;15.95;42.89
62436;BME280;48480;50.252;18.848;2023-04-30T09:04:05;99037.81;;;15.66;43.28
62436;BME280;48480;50.252;18.848;2023-04-30T09:06:52;99036.60;;;15.84;43.18
62436;BME280;48480;50.252;18.848;2023-04-30T09:09:40;99035.88;;;16.10;42.67
62436;BME280;48480;50.252;18.848;2023-04-30T09:12:24;99044.27;;;16.35;40.83
62436;BME280;48480;50.252;18.848;2023-04-30T09:15:09;99040.83;;;16.52;40.46
62436;BME280;48480;50.252;18.848;2023-04-30T09:18:16;99036.20;;;16.74;39.86
62436;BME280;48480;50.252;18.848;2023-04-30T09:21:01;99035.78;;;16.92;39.61
62436;BME280;48480;50.252;18.848;2023-04-30T09:23:57;99040.77;;;17.16;40.00
62436;BME280;48480;50.252;18.848;2023-04-30T09:26:42;99034.16;;;17.61;38.58
62436;BME280;48480;50.252;18.848;2023-04-30T09:29:35;99036.76;;;18.01;38.23
62436;BME280;48480;50.252;18.848;2023-04-30T09:32:20;99043.02;;;18.11;38.45
62436;BME280;48480;50.252;18.848;2023-04-30T09:35:04;99037.07;;;17.90;38.52
62436;BME280;48480;50.252;18.848;2023-04-30T09:37:49;99041.23;;;17.65;38.65
62436;BME280;48480;50.252;18.848;2023-04-30T09:40:38;99041.73;;;17.87;38.64
62436;BME280;48480;50.252;18.848;2023-04-30T09:43:27;99049.65;;;17.73;37.03
62436;BME280;48480;50.252;18.848;2023-04-30T09:46:12;99046.20;;;17.54;37.55
62436;BME280;48480;50.252;18.848;2023-04-30T09:48:57;99039.11;;;17.61;37.49
62436;BME280;48480;50.252;18.848;2023-04-30T09:51:56;99037.38;;;17.80;38.42
62436;BME280;48480;50.252;18.848;2023-04-30T09:54:45;99035.27;;;18.14;37.42
62436;BME280;48480;50.252;18.848;2023-04-30T09:57:29;99027.80;;;18.41;37.06
62436;BME280;48480;50.252;18.848;2023-04-30T10:00:20;99026.45;;;18.71;36.48
62436;BME280;48480;50.252;18.848;2023-04-30T10:03:10;99036.38;;;18.59;36.63
62436;BME280;48480;50.252;18.848;2023-04-30T10:05:59;99032.04;;;18.56;36.34
62436;BME280;48480;50.252;18.848;2023-04-30T10:08:52;99028.94;;;18.46;34.08
62436;BME280;48480;50.252;18.848;2023-04-30T10:11:38;99029.80;;;18.33;35.60
62436;BME280;48480;50.252;18.848;2023-04-30T10:14:28;99027.40;;;18.47;35.55
62436;BME280;48480;50.252;18.848;2023-04-30T10:17:16;99026.61;;;18.67;35.22
62436;BME280;48480;50.252;18.848;2023-04-30T10:20:03;99026.18;;;18.55;34.87
62436;BME280;48480;50.252;18.848;2023-04-30T10:22:54;99025.49;;;18.56;34.94
62436;BME280;48480;50.252;18.848;2023-04-30T10:25:39;99021.80;;;18.67;34.40
62436;BME280;48480;50.252;18.848;2023-04-30T10:28:27;99020.29;;;18.65;33.63
62436;BME280;48480;50.252;18.848;2023-04-30T10:31:16;99017.55;;;18.65;33.90
62436;BME280;48480;50.252;18.848;2023-04-30T10:36:59;99018.45;;;18.77;33.67
62436;BME280;48480;50.252;18.848;2023-04-30T10:39:49;99015.65;;;18.74;34.59
62436;BME280;48480;50.252;18.848;2023-04-30T10:42:35;99007.16;;;18.69;35.18
62436;BME280;48480;50.252;18.848;2023-04-30T10:45:37;99014.25;;;18.77;35.43
62436;BME280;48480;50.252;18.848;2023-04-30T10:48:25;99005.09;;;18.84;34.65
62436;BME280;48480;50.252;18.848;2023-04-30T10:51:10;99005.15;;;18.73;34.45
62436;BME280;48480;50.252;18.848;2023-04-30T10:53:54;99008.42;;;18.80;34.16
62436;BME280;48480;50.252;18.848;2023-04-30T10:56:39;99004.16;;;18.77;33.80
62436;BME280;48480;50.252;18.848;2023-04-30T10:59:24;99005.14;;;18.79;34.56
62436;BME280;48480;50.252;18.848;2023-04-30T11:02:17;99000.05;;;18.92;34.42
62436;BME280;48480;50.252;18.848;2023-04-30T11:05:12;98999.90;;;19.03;34.51
62436;BME280;48480;50.252;18.848;2023-04-30T11:07:57;98992.29;;;19.20;34.91
62436;BME280;48480;50.252;18.848;2023-04-30T11:10:59;98997.85;;;19.35;34.93
62436;BME280;48480;50.252;18.848;2023-04-30T11:13:57;98998.59;;;19.38;33.98
62436;BME280;48480;50.252;18.848;2023-04-30T11:16:42;99000.39;;;19.29;33.96
62436;BME280;48480;50.252;18.848;2023-04-30T11:19:47;98998.81;;;19.15;33.47
62436;BME280;48480;50.252;18.848;2023-04-30T11:22:37;98998.98;;;19.04;34.45
62436;BME280;48480;50.252;18.848;2023-04-30T11:25:21;99006.69;;;19.10;34.06
62436;BME280;48480;50.252;18.848;2023-04-30T11:30:58;99009.70;;;18.71;32.99
62436;BME280;48480;50.252;18.848;2023-04-30T11:33:51;99003.74;;;18.61;33.15
62436;BME280;48480;50.252;18.848;2023-04-30T11:36:39;99006.77;;;18.55;33.39
62436;BME280;48480;50.252;18.848;2023-04-30T11:39:31;99004.33;;;18.53;33.95
62436;BME280;48480;50.252;18.848;2023-04-30T11:42:18;99006.61;;;18.57;33.92
62436;BME280;48480;50.252;18.848;2023-04-30T11:45:07;99007.21;;;18.64;34.03
62436;BME280;48480;50.252;18.848;2023-04-30T11:47:54;99001.49;;;18.47;33.49
62436;BME280;48480;50.252;18.848;2023-04-30T11:53:29;98998.04;;;18.52;33.79
62436;BME280;48480;50.252;18.848;2023-04-30T11:59:10;99012.45;;;18.52;32.81
62436;BME280;48480;50.252;18.848;2023-04-30T12:01:59;99006.47;;;18.40;32.61
62436;BME280;48480;50.252;18.848;2023-04-30T12:04:43;99004.64;;;18.32;33.15
62436;BME280;48480;50.252;18.848;2023-04-30T12:10:06;99009.81;;;18.20;32.90
62436;BME280;48480;50.252;18.848;2023-04-30T12:12:51;99012.59;;;17.88;33.11
62436;BME280;48480;50.252;18.848;2023-04-30T12:15:37;99011.92;;;17.79;33.41
62436;BME280;48480;50.252;18.848;2023-04-30T12:18:22;98994.33;;;17.64;33.91
62436;BME280;48480;50.252;18.848;2023-04-30T12:21:09;99013.15;;;17.79;33.68
62436;BME280;48480;50.252;18.848;2023-04-30T12:23:53;99004.20;;;17.77;33.88
62436;BME280;48480;50.252;18.848;2023-04-30T12:26:39;98999.64;;;17.79;33.93
62436;BME280;48480;50.252;18.848;2023-04-30T12:29:24;99000.02;;;17.78;34.44
62436;BME280;48480;50.252;18.848;2023-04-30T12:32:09;98996.45;;;17.81;34.69
62436;BME280;48480;50.252;18.848;2023-04-30T12:34:57;98991.33;;;17.92;35.21
62436;BME280;48480;50.252;18.848;2023-04-30T12:37:44;98992.86;;;18.02;34.74
62436;BME280;48480;50.252;18.848;2023-04-30T12:40:29;99000.79;;;18.09;34.29
62436;BME280;48480;50.252;18.848;2023-04-30T12:43:15;98992.34;;;18.00;34.14
62436;BME280;48480;50.252;18.848;2023-04-30T12:46:00;98986.59;;;17.89;34.22
62436;BME280;48480;50.252;18.848;2023-04-30T12:48:46;98985.92;;;17.94;34.73
62436;BME280;48480;50.252;18.848;2023-04-30T12:51:41;98981.88;;;17.97;34.13
62436;BME280;48480;50.252;18.848;2023-04-30T12:54:27;98976.11;;;17.95;34.31
62436;BME280;48480;50.252;18.848;2023-04-30T12:57:13;98979.42;;;18.01;34.45
62436;BME280;48480;50.252;18.848;2023-04-30T12:59:59;98974.05;;;18.04;33.82
62436;BME280;48480;50.252;18.848;2023-04-30T13:02:51;98986.15;;;17.93;33.19
62436;BME280;48480;50.252;18.848;2023-04-30T13:05:35;98976.84;;;17.75;33.19
62436;BME280;48480;50.252;18.848;2023-04-30T13:08:20;98978.63;;;17.63;33.73
62436;BME280;48480;50.252;18.848;2023-04-30T13:11:04;98980.35;;;17.66;33.73
62436;BME280;48480;50.252;18.848;2023-04-30T13:13:49;98979.24;;;17.69;33.50
62436;BME280;48480;50.252;18.848;2023-04-30T13:16:33;98970.34;;;17.75;33.81
62436;BME280;48480;50.252;18.848;2023-04-30T13:19:18;98974.08;;;17.70;33.64
62436;BME280;48480;50.252;18.848;2023-04-30T13:22:02;98967.90;;;17.65;34.22
62436;BME280;48480;50.252;18.848;2023-04-30T13:24:46;98966.61;;;17.66;34.51
62436;BME280;48480;50.252;18.848;2023-04-30T13:27:38;98963.08;;;17.57;34.25
62436;BME280;48480;50.252;18.848;2023-04-30T13:30:24;98970.65;;;17.51;34.81
62436;BME280;48480;50.252;18.848;2023-04-30T13:33:08;98970.54;;;17.43;33.56
62436;BME280;48480;50.252;18.848;2023-04-30T13:35:53;98970.09;;;17.25;33.24
62436;BME280;48480;50.252;18.848;2023-04-30T13:38:37;98957.35;;;17.12;33.16
62436;BME280;48480;50.252;18.848;2023-04-30T13:41:22;98954.95;;;17.12;33.09
62436;BME280;48480;50.252;18.848;2023-04-30T13:44:06;98957.89;;;17.16;33.64
62436;BME280;48480;50.252;18.848;2023-04-30T13:46:50;98960.20;;;17.20;34.52
62436;BME280;48480;50.252;18.848;2023-04-30T13:49:34;98962.73;;;17.25;34.66
62436;BME280;48480;50.252;18.848;2023-04-30T13:52:25;98959.19;;;17.26;34.73
62436;BME280;48480;50.252;18.848;2023-04-30T13:55:09;98963.20;;;17.32;34.49
62436;BME280;48480;50.252;18.848;2023-04-30T13:57:54;98957.54;;;17.31;34.69
62436;BME280;48480;50.252;18.848;2023-04-30T14:00:39;98967.07;;;17.35;34.62
62436;BME280;48480;50.252;18.848;2023-04-30T14:03:23;98968.74;;;17.36;34.52
62436;BME280;48480;50.252;18.848;2023-04-30T14:06:08;98966.09;;;17.41;34.74
62436;BME280;48480;50.252;18.848;2023-04-30T14:08:53;98971.72;;;17.40;33.87
62436;BME280;48480;50.252;18.848;2023-04-30T14:11:37;98970.60;;;17.27;33.92
62436;BME280;48480;50.252;18.848;2023-04-30T14:14:22;98964.41;;;17.22;34.54
62436;BME280;48480;50.252;18.848;2023-04-30T14:17:10;98966.40;;;17.26;34.52
62436;BME280;48480;50.252;18.848;2023-04-30T14:19:54;98965.52;;;17.31;34.74
62436;BME280;48480;50.252;18.848;2023-04-30T14:22:39;98959.20;;;17.39;34.72
62436;BME280;48480;50.252;18.848;2023-04-30T14:25:13;98959.33;;;17.43;34.65
62436;BME280;48480;50.252;18.848;2023-04-30T14:27:57;98958.60;;;17.42;34.61
62436;BME280;48480;50.252;18.848;2023-04-30T14:30:41;98964.48;;;17.42;34.76
62436;BME280;48480;50.252;18.848;2023-04-30T14:33:25;98969.65;;;17.39;34.36
62436;BME280;48480;50.252;18.848;2023-04-30T14:36:10;98970.52;;;17.33;34.80
62436;BME280;48480;50.252;18.848;2023-04-30T14:38:54;98970.64;;;17.32;34.01
62436;BME280;48480;50.252;18.848;2023-04-30T14:41:39;98965.39;;;17.26;33.78
62436;BME280;48480;50.252;18.848;2023-04-30T14:44:23;98969.05;;;17.27;33.69
62436;BME280;48480;50.252;18.848;2023-04-30T14:47:10;98965.63;;;17.30;33.76
62436;BME280;48480;50.252;18.848;2023-04-30T14:49:54;98973.82;;;17.34;33.01
62436;BME280;48480;50.252;18.848;2023-04-30T14:52:38;98966.13;;;17.22;32.71
62436;BME280;48480;50.252;18.848;2023-04-30T14:55:23;98967.16;;;17.14;32.78
62436;BME280;48480;50.252;18.848;2023-04-30T14:58:11;98972.77;;;17.04;32.96